Terminal Aerodrome Forecast
Issued by NWS

Home | Current Version | Previous Version | Text Only | Print | Product List | Glossary On
Versions: 1 2 3 4 5 6 7 8 9 10 11 12 13 14 15 16 17 18 19 20 21 22 23 24 25 26 27 28 29 30 31 32 33 34 35 36 37
000
FTAK31 PANC 252336
TAFADQ
TAF
PADQ 252336Z 2600/2624 25007KT P6SM VCSH SCT025 BKN035
      TEMPO 2600/2604 -SHRASN BKN025
     FM260800 23007KT P6SM SCT035 SCT080
     FM261500 25007KT P6SM VCSH BKN035
     FM262000 26010KT P6SM SCT035=

USA.gov is the U.S. government's official web portal to all federal, state and local government web resources and services.